Last 6 Hours

Alpine-Summit 8643' (Ward Mt.)

15 Minute Data | America/Los_Angeles
as of 1/15/21 1:08 PM PST
Date & Time Temp (°F) RH (%) Dew Pt (°F) Wet Bulb (°F) Wind Dir (°) Wind Spd (mph) Wind Gust (mph) WindChill (°F)
1/15/21 - 1300 46.7 40 23.5 36.4 SSW | 211 30.6 36.9 37.8
1/15/21 - 1245 47.5 33 20.0 35.7 SSW | 211 29.6 36.8 39.1
1/15/21 - 1230 48.6 28 17.2 35.6 SW | 225 28.5 32.9 41.2
1/15/21 - 1215 49.4 25 15.0 35.4 SW | 224 29.8 40.4 40.3
1/15/21 - 1200 48.2 24 13.0 34.4 SW | 217 33.1 38.2 39.2
1/15/21 - 1145 48.4 26 15.0 34.9 SSW | 206 31.4 34.5 39.9
1/15/21 - 1130 48.5 28 17.0 35.4 SSW | 204 31.0 35.1 39.8
1/15/21 - 1115 48.0 33 20.0 36.0 SW | 214 27.3 32.4 39.5
1/15/21 - 1100 47.4 28 16.3 34.7 SW | 216 25.0 34.7 39.4
1/15/21 - 1045 47.6 30 18.0 35.3 SSW | 209 25.7 29.6 39.8
1/15/21 - 1030 47.8 23 12.1 34.0 SSW | 211 26.8 31.3 39.4
1/15/21 - 1015 47.7 22 10.6 33.6 SW | 217 24.4 29.4 40.0
1/15/21 - 1000 47.8 20 8.6 33.3 SW | 215 21.7 25.7 40.3
1/15/21 - 0945 47.5 18 5.7 32.6 SW | 216 22.6 27.3 39.8
1/15/21 - 0930 47.5 17 5.4 32.6 SW | 216 21.0 23.8 40.1
1/15/21 - 0915 47.6 17 4.5 32.5 SW | 215 21.3 24.7 40.1
1/15/21 - 0900 47.4 17 4.7 32.4 SW | 220 22.8 26.0 39.4
1/15/21 - 0845 47.1 18 6.3 32.5 SW | 219 21.3 23.8 39.6
1/15/21 - 0830 47.4 16 3.5 32.2 SW | 215 19.5 21.9 40.4
1/15/21 - 0815 47.7 17 4.4 32.5 SW | 220 19.3 21.3 41.1
1/15/21 - 0800 48.1 15 3.1 32.5 SW | 228 20.2 22.5 41.1
1/15/21 - 0745 48.0 15 2.8 32.4 SW | 233 18.0 20.9 41.4
1/15/21 - 0730 48.1 13 -0.4 32.1 WSW | 241 17.7 20.7 41.7
1/15/21 - 0715 48.3 11 -4.7 31.6 WSW | 244 15.9 17.3 42.2
Max 49.4 40 23.5 36.4 - 33.1 40.4 42.2
Avg 47.8 22 10.1 33.8 - 24.4 28.7 40.1
Min 46.7 11 -4.7 31.6 - 15.9 17.3 37.8